sensor_id;sensor_type;location;lat;lon;timestamp;pressure;altitude;pressure_sealevel;temperature;humidity
51603;BME280;37954;51.980;5.850;2023-04-08T00:03:57;101925.66;;;7.73;94.61
51603;BME280;37954;51.980;5.850;2023-04-08T00:08:08;101917.72;;;7.56;94.53
51603;BME280;37954;51.980;5.850;2023-04-08T00:12:20;101929.75;;;7.60;94.48
51603;BME280;37954;51.980;5.850;2023-04-08T00:16:32;101910.44;;;7.42;94.47
51603;BME280;37954;51.980;5.850;2023-04-08T00:20:43;101914.47;;;7.38;94.56
51603;BME280;37954;51.980;5.850;2023-04-08T00:24:56;101906.28;;;7.31;94.61
51603;BME280;37954;51.980;5.850;2023-04-08T00:29:08;101936.50;;;7.40;94.15
51603;BME280;37954;51.980;5.850;2023-04-08T00:33:19;101902.34;;;7.11;94.14
51603;BME280;37954;51.980;5.850;2023-04-08T00:37:31;101933.91;;;7.24;94.04
51603;BME280;37954;51.980;5.850;2023-04-08T00:41:43;101923.06;;;7.17;94.00
51603;BME280;37954;51.980;5.850;2023-04-08T00:45:54;101902.56;;;6.93;93.96
51603;BME280;37954;51.980;5.850;2023-04-08T00:50:07;101923.78;;;6.95;93.73
51603;BME280;37954;51.980;5.850;2023-04-08T00:54:20;101919.13;;;6.81;93.58
51603;BME280;37954;51.980;5.850;2023-04-08T00:58:32;101945.16;;;6.87;93.67
51603;BME280;37954;51.980;5.850;2023-04-08T01:02:49;101949.19;;;6.75;93.41
51603;BME280;37954;51.980;5.850;2023-04-08T01:11:19;101949.19;;;6.58;93.31
51603;BME280;37954;51.980;5.850;2023-04-08T01:15:33;101948.53;;;6.56;93.66
51603;BME280;37954;51.980;5.850;2023-04-08T01:19:46;101941.84;;;6.60;93.77
51603;BME280;37954;51.980;5.850;2023-04-08T01:24:08;101952.38;;;6.70;93.91
51603;BME280;37954;51.980;5.850;2023-04-08T01:28:27;101953.53;;;6.68;94.52
51603;BME280;37954;51.980;5.850;2023-04-08T01:32:40;101950.00;;;6.59;94.64
51603;BME280;37954;51.980;5.850;2023-04-08T01:36:55;101939.84;;;6.46;94.28
51603;BME280;37954;51.980;5.850;2023-04-08T01:41:10;101954.38;;;6.36;94.81
51603;BME280;37954;51.980;5.850;2023-04-08T01:45:22;101949.16;;;6.26;94.37
51603;BME280;37954;51.980;5.850;2023-04-08T01:49:34;101959.69;;;6.19;94.28
51603;BME280;37954;51.980;5.850;2023-04-08T01:53:47;101957.16;;;6.10;94.23
51603;BME280;37954;51.980;5.850;2023-04-08T01:57:59;101951.97;;;6.00;94.13
51603;BME280;37954;51.980;5.850;2023-04-08T02:02:12;101964.94;;;5.95;94.06
51603;BME280;37954;51.980;5.850;2023-04-08T02:06:26;101959.75;;;5.85;93.92
51603;BME280;37954;51.980;5.850;2023-04-08T02:10:39;101954.72;;;5.82;93.64
51603;BME280;37954;51.980;5.850;2023-04-08T02:14:52;101952.03;;;5.74;93.77
51603;BME280;37954;51.980;5.850;2023-04-08T02:19:24;101957.88;;;5.70;93.64
51603;BME280;37954;51.980;5.850;2023-04-08T02:23:39;101947.16;;;5.62;93.77
51603;BME280;37954;51.980;5.850;2023-04-08T02:27:51;101951.44;;;5.54;93.58
51603;BME280;37954;51.980;5.850;2023-04-08T02:32:05;101939.41;;;5.42;93.97
51603;BME280;37954;51.980;5.850;2023-04-08T02:36:19;101958.91;;;5.43;93.85
51603;BME280;37954;51.980;5.850;2023-04-08T02:40:32;101958.19;;;5.33;94.08
51603;BME280;37954;51.980;5.850;2023-04-08T02:44:46;101957.84;;;5.28;93.73
51603;BME280;37954;51.980;5.850;2023-04-08T02:48:58;101974.28;;;5.23;93.90
51603;BME280;37954;51.980;5.850;2023-04-08T02:53:09;101969.44;;;5.18;93.25
51603;BME280;37954;51.980;5.850;2023-04-08T02:57:21;101960.56;;;5.10;93.14
51603;BME280;37954;51.980;5.850;2023-04-08T03:01:33;101963.34;;;5.00;93.40
51603;BME280;37954;51.980;5.850;2023-04-08T03:05:44;101976.97;;;4.97;93.66
51603;BME280;37954;51.980;5.850;2023-04-08T03:09:56;101977.03;;;4.87;93.21
51603;BME280;37954;51.980;5.850;2023-04-08T03:14:08;101983.16;;;4.80;93.43
51603;BME280;37954;51.980;5.850;2023-04-08T03:18:19;101995.09;;;4.76;93.49
51603;BME280;37954;51.980;5.850;2023-04-08T03:22:32;101984.56;;;4.66;93.44
51603;BME280;37954;51.980;5.850;2023-04-08T03:26:43;101979.00;;;4.60;93.03
51603;BME280;37954;51.980;5.850;2023-04-08T03:30:55;101997.78;;;4.58;92.86
51603;BME280;37954;51.980;5.850;2023-04-08T03:35:07;101989.94;;;4.57;92.95
51603;BME280;37954;51.980;5.850;2023-04-08T03:39:18;102001.19;;;4.50;93.17
51603;BME280;37954;51.980;5.850;2023-04-08T03:43:30;102001.28;;;4.41;93.01
51603;BME280;37954;51.980;5.850;2023-04-08T03:47:41;102004.09;;;4.39;92.80
51603;BME280;37954;51.980;5.850;2023-04-08T03:51:53;102001.88;;;4.35;92.82
51603;BME280;37954;51.980;5.850;2023-04-08T03:56:05;102004.88;;;4.32;92.33
51603;BME280;37954;51.980;5.850;2023-04-08T04:00:17;102015.09;;;4.27;92.92
51603;BME280;37954;51.980;5.850;2023-04-08T04:04:28;102008.84;;;4.18;92.79
51603;BME280;37954;51.980;5.850;2023-04-08T04:08:40;102014.66;;;4.13;92.83
51603;BME280;37954;51.980;5.850;2023-04-08T04:12:51;102020.84;;;4.04;92.79
51603;BME280;37954;51.980;5.850;2023-04-08T04:17:03;102008.91;;;3.91;92.78
51603;BME280;37954;51.980;5.850;2023-04-08T04:21:14;102010.03;;;3.88;92.60
51603;BME280;37954;51.980;5.850;2023-04-08T04:25:26;101995.97;;;3.78;92.22
51603;BME280;37954;51.980;5.850;2023-04-08T04:29:37;102030.16;;;3.91;92.43
51603;BME280;37954;51.980;5.850;2023-04-08T04:33:49;102035.06;;;3.85;92.81
51603;BME280;37954;51.980;5.850;2023-04-08T04:38:00;102013.31;;;3.72;92.88
51603;BME280;37954;51.980;5.850;2023-04-08T04:42:12;102039.13;;;3.90;93.04
51603;BME280;37954;51.980;5.850;2023-04-08T04:46:24;102026.03;;;3.78;92.51
51603;BME280;37954;51.980;5.850;2023-04-08T04:50:35;102052.56;;;3.88;92.87
51603;BME280;37954;51.980;5.850;2023-04-08T04:54:47;102053.69;;;3.85;92.95
51603;BME280;37954;51.980;5.850;2023-04-08T04:58:58;102053.13;;;3.82;92.97
51603;BME280;37954;51.980;5.850;2023-04-08T05:03:10;102062.63;;;3.84;92.96
51603;BME280;37954;51.980;5.850;2023-04-08T05:07:22;102055.63;;;3.83;93.20
51603;BME280;37954;51.980;5.850;2023-04-08T05:11:33;102067.38;;;3.91;93.13
51603;BME280;37954;51.980;5.850;2023-04-08T05:15:45;102072.25;;;3.95;93.11
51603;BME280;37954;51.980;5.850;2023-04-08T05:19:57;102070.13;;;3.99;93.54
51603;BME280;37954;51.980;5.850;2023-04-08T05:24:08;102076.69;;;4.04;93.43
51603;BME280;37954;51.980;5.850;2023-04-08T05:28:20;102054.28;;;4.07;93.63
51603;BME280;37954;51.980;5.850;2023-04-08T05:32:31;102072.28;;;4.58;94.11
51603;BME280;37954;51.980;5.850;2023-04-08T05:36:43;102093.69;;;4.84;94.54
51603;BME280;37954;51.980;5.850;2023-04-08T05:40:55;102098.31;;;4.82;94.79
51603;BME280;37954;51.980;5.850;2023-04-08T05:45:06;102075.50;;;4.62;94.54
51603;BME280;37954;51.980;5.850;2023-04-08T05:49:18;102099.06;;;5.53;94.82
51603;BME280;37954;51.980;5.850;2023-04-08T05:53:30;102071.34;;;6.64;95.54
51603;BME280;37954;51.980;5.850;2023-04-08T05:57:41;102097.75;;;8.04;96.39
51603;BME280;37954;51.980;5.850;2023-04-08T06:01:53;102090.06;;;8.94;96.17
51603;BME280;37954;51.980;5.850;2023-04-08T06:06:09;102121.69;;;9.88;95.12
51603;BME280;37954;51.980;5.850;2023-04-08T06:10:22;102105.25;;;10.57;93.02
51603;BME280;37954;51.980;5.850;2023-04-08T06:14:33;102114.28;;;11.34;90.51
51603;BME280;37954;51.980;5.850;2023-04-08T06:18:45;102109.38;;;11.94;88.49
51603;BME280;37954;51.980;5.850;2023-04-08T06:22:57;102130.34;;;12.46;85.19
51603;BME280;37954;51.980;5.850;2023-04-08T06:27:09;102135.47;;;13.02;78.05
51603;BME280;37954;51.980;5.850;2023-04-08T06:31:20;102134.72;;;13.47;77.28
51603;BME280;37954;51.980;5.850;2023-04-08T06:35:32;102140.41;;;14.10;75.80
51603;BME280;37954;51.980;5.850;2023-04-08T06:39:44;102146.41;;;14.77;75.64
51603;BME280;37954;51.980;5.850;2023-04-08T06:43:55;102139.94;;;15.16;73.23
51603;BME280;37954;51.980;5.850;2023-04-08T06:48:07;102139.22;;;15.58;69.45
51603;BME280;37954;51.980;5.850;2023-04-08T06:52:19;102149.38;;;16.06;66.44
51603;BME280;37954;51.980;5.850;2023-04-08T06:56:31;102145.63;;;16.25;59.38
51603;BME280;37954;51.980;5.850;2023-04-08T07:00:43;102158.63;;;16.72;59.43
51603;BME280;37954;51.980;5.850;2023-04-08T07:04:54;102164.78;;;17.09;58.22
51603;BME280;37954;51.980;5.850;2023-04-08T07:09:06;102177.75;;;17.48;55.65
51603;BME280;37954;51.980;5.850;2023-04-08T07:13:18;102178.50;;;17.90;54.37
51603;BME280;37954;51.980;5.850;2023-04-08T07:17:29;102191.22;;;18.36;52.45
51603;BME280;37954;51.980;5.850;2023-04-08T07:21:42;102189.63;;;18.75;49.90
51603;BME280;37954;51.980;5.850;2023-04-08T07:25:54;102193.63;;;19.13;49.68
51603;BME280;37954;51.980;5.850;2023-04-08T07:30:06;102193.59;;;19.58;46.35
51603;BME280;37954;51.980;5.850;2023-04-08T07:34:17;102200.16;;;19.74;44.54
51603;BME280;37954;51.980;5.850;2023-04-08T07:38:30;102194.69;;;19.91;43.96
51603;BME280;37954;51.980;5.850;2023-04-08T07:42:42;102200.25;;;20.17;43.22
51603;BME280;37954;51.980;5.850;2023-04-08T07:46:53;102224.16;;;20.49;42.36
51603;BME280;37954;51.980;5.850;2023-04-08T07:51:07;102223.03;;;20.89;41.35
51603;BME280;37954;51.980;5.850;2023-04-08T07:55:22;102200.56;;;21.08;40.88
51603;BME280;37954;51.980;5.850;2023-04-08T07:59:33;102217.94;;;21.51;38.58
51603;BME280;37954;51.980;5.850;2023-04-08T08:03:45;102219.97;;;21.66;38.56
51603;BME280;37954;51.980;5.850;2023-04-08T08:07:58;102212.38;;;21.73;38.53
51603;BME280;37954;51.980;5.850;2023-04-08T08:12:10;102211.88;;;22.18;38.39
51603;BME280;37954;51.980;5.850;2023-04-08T08:16:22;102212.69;;;22.66;38.27
51603;BME280;37954;51.980;5.850;2023-04-08T08:20:37;102213.06;;;22.84;37.71
51603;BME280;37954;51.980;5.850;2023-04-08T08:24:54;102213.03;;;22.79;37.05
51603;BME280;37954;51.980;5.850;2023-04-08T08:29:06;102221.34;;;23.15;36.67
51603;BME280;37954;51.980;5.850;2023-04-08T08:33:19;102226.59;;;23.32;36.41
51603;BME280;37954;51.980;5.850;2023-04-08T08:37:30;102232.09;;;23.57;36.39
51603;BME280;37954;51.980;5.850;2023-04-08T08:41:42;102226.34;;;23.84;35.47
51603;BME280;37954;51.980;5.850;2023-04-08T08:45:54;102250.19;;;24.19;34.39
51603;BME280;37954;51.980;5.850;2023-04-08T08:50:05;102239.75;;;24.11;33.45
51603;BME280;37954;51.980;5.850;2023-04-08T08:54:17;102227.94;;;24.15;33.95
51603;BME280;37954;51.980;5.850;2023-04-08T08:58:29;102236.97;;;24.41;34.20
51603;BME280;37954;51.980;5.850;2023-04-08T09:02:41;102231.72;;;24.50;33.32
51603;BME280;37954;51.980;5.850;2023-04-08T09:07:09;102252.69;;;24.95;32.84
51603;BME280;37954;51.980;5.850;2023-04-08T09:11:21;102250.63;;;25.21;32.37
51603;BME280;37954;51.980;5.850;2023-04-08T09:15:33;102260.19;;;25.33;31.91
51603;BME280;37954;51.980;5.850;2023-04-08T09:20:04;102254.38;;;25.35;30.92
51603;BME280;37954;51.980;5.850;2023-04-08T09:24:29;102254.69;;;25.28;29.60
51603;BME280;37954;51.980;5.850;2023-04-08T09:28:42;102254.69;;;25.33;29.13
51603;BME280;37954;51.980;5.850;2023-04-08T09:32:55;102255.25;;;25.30;28.46
51603;BME280;37954;51.980;5.850;2023-04-08T09:37:07;102255.06;;;25.17;28.74
51603;BME280;37954;51.980;5.850;2023-04-08T09:41:19;102249.44;;;25.37;29.33
51603;BME280;37954;51.980;5.850;2023-04-08T09:45:32;102244.63;;;25.53;29.14
51603;BME280;37954;51.980;5.850;2023-04-08T09:49:55;102245.53;;;24.99;28.60
51603;BME280;37954;51.980;5.850;2023-04-08T09:54:13;102245.25;;;25.01;29.56
51603;BME280;37954;51.980;5.850;2023-04-08T09:58:28;102252.38;;;25.07;29.20
51603;BME280;37954;51.980;5.850;2023-04-08T10:02:54;102258.31;;;25.24;28.61
51603;BME280;37954;51.980;5.850;2023-04-08T10:07:09;102253.75;;;25.48;28.53
51603;BME280;37954;51.980;5.850;2023-04-08T10:11:22;102236.63;;;25.17;27.59
51603;BME280;37954;51.980;5.850;2023-04-08T10:15:34;102247.03;;;25.25;28.29
51603;BME280;37954;51.980;5.850;2023-04-08T10:19:47;102243.63;;;25.44;28.42
51603;BME280;37954;51.980;5.850;2023-04-08T10:24:00;102245.44;;;25.53;28.25
51603;BME280;37954;51.980;5.850;2023-04-08T10:32:28;102238.53;;;25.61;27.91
51603;BME280;37954;51.980;5.850;2023-04-08T10:36:40;102249.72;;;26.04;26.95
51603;BME280;37954;51.980;5.850;2023-04-08T10:40:53;102234.22;;;26.13;26.37
51603;BME280;37954;51.980;5.850;2023-04-08T10:45:05;102219.69;;;25.78;25.58
51603;BME280;37954;51.980;5.850;2023-04-08T10:49:17;102227.09;;;25.05;26.51
51603;BME280;37954;51.980;5.850;2023-04-08T10:53:37;102227.66;;;24.12;27.02
51603;BME280;37954;51.980;5.850;2023-04-08T10:57:49;102224.44;;;23.64;27.99
51603;BME280;37954;51.980;5.850;2023-04-08T11:02:01;102229.78;;;22.93;28.97
51603;BME280;37954;51.980;5.850;2023-04-08T11:06:14;102227.53;;;22.22;29.49
51603;BME280;37954;51.980;5.850;2023-04-08T11:10:26;102227.81;;;21.89;29.32
51603;BME280;37954;51.980;5.850;2023-04-08T11:14:39;102234.06;;;21.79;29.43
51603;BME280;37954;51.980;5.850;2023-04-08T11:18:52;102233.03;;;21.91;29.63
51603;BME280;37954;51.980;5.850;2023-04-08T11:23:10;102240.34;;;22.64;29.12
51603;BME280;37954;51.980;5.850;2023-04-08T11:27:22;102243.25;;;23.00;29.05
51603;BME280;37954;51.980;5.850;2023-04-08T11:31:36;102231.16;;;22.96;28.96
51603;BME280;37954;51.980;5.850;2023-04-08T11:35:50;102231.66;;;22.77;28.56
51603;BME280;37954;51.980;5.850;2023-04-08T11:40:06;102241.09;;;22.54;28.39
51603;BME280;37954;51.980;5.850;2023-04-08T11:44:17;102212.66;;;22.08;27.81
51603;BME280;37954;51.980;5.850;2023-04-08T11:48:29;102202.41;;;21.57;28.89
51603;BME280;37954;51.980;5.850;2023-04-08T11:52:45;102221.63;;;20.86;30.32
51603;BME280;37954;51.980;5.850;2023-04-08T11:56:58;102213.97;;;20.39;30.78
51603;BME280;37954;51.980;5.850;2023-04-08T12:01:10;102230.06;;;19.86;30.52
51603;BME280;37954;51.980;5.850;2023-04-08T12:05:22;102214.84;;;19.56;29.72
51603;BME280;37954;51.980;5.850;2023-04-08T12:09:33;102207.59;;;19.33;29.45
51603;BME280;37954;51.980;5.850;2023-04-08T12:13:45;102219.53;;;19.61;30.11
51603;BME280;37954;51.980;5.850;2023-04-08T12:17:56;102236.25;;;19.81;30.44
51603;BME280;37954;51.980;5.850;2023-04-08T12:22:08;102228.78;;;19.60;31.73
51603;BME280;37954;51.980;5.850;2023-04-08T12:26:20;102226.38;;;19.46;32.79
51603;BME280;37954;51.980;5.850;2023-04-08T12:30:31;102211.31;;;19.56;32.70
51603;BME280;37954;51.980;5.850;2023-04-08T12:34:43;102199.75;;;20.21;32.27
51603;BME280;37954;51.980;5.850;2023-04-08T12:38:55;102226.66;;;20.72;31.29
51603;BME280;37954;51.980;5.850;2023-04-08T12:43:06;102230.78;;;20.75;30.94
51603;BME280;37954;51.980;5.850;2023-04-08T12:47:18;102223.09;;;20.72;30.96
51603;BME280;37954;51.980;5.850;2023-04-08T12:51:30;102213.66;;;20.58;31.49
51603;BME280;37954;51.980;5.850;2023-04-08T12:55:42;102197.06;;;20.42;30.58
51603;BME280;37954;51.980;5.850;2023-04-08T12:59:55;102215.66;;;20.29;30.44
51603;BME280;37954;51.980;5.850;2023-04-08T13:04:07;102212.25;;;20.00;30.97
51603;BME280;37954;51.980;5.850;2023-04-08T13:08:18;102206.16;;;19.93;31.13
51603;BME280;37954;51.980;5.850;2023-04-08T13:12:30;102216.72;;;20.06;31.10
51603;BME280;37954;51.980;5.850;2023-04-08T13:16:42;102215.16;;;19.93;31.31
51603;BME280;37954;51.980;5.850;2023-04-08T13:20:54;102212.38;;;19.55;31.20
51603;BME280;37954;51.980;5.850;2023-04-08T13:25:06;102231.09;;;19.23;31.68
51603;BME280;37954;51.980;5.850;2023-04-08T13:29:18;102224.59;;;18.95;32.36
51603;BME280;37954;51.980;5.850;2023-04-08T13:33:30;102224.25;;;18.92;33.29
51603;BME280;37954;51.980;5.850;2023-04-08T13:37:41;102230.09;;;18.84;33.61
51603;BME280;37954;51.980;5.850;2023-04-08T13:41:53;102220.41;;;18.76;32.96
51603;BME280;37954;51.980;5.850;2023-04-08T13:46:04;102208.34;;;18.72;33.50
51603;BME280;37954;51.980;5.850;2023-04-08T13:50:16;102214.63;;;19.01;33.71
51603;BME280;37954;51.980;5.850;2023-04-08T13:54:28;102182.22;;;18.88;34.04
51603;BME280;37954;51.980;5.850;2023-04-08T13:58:39;102206.75;;;19.16;33.67
51603;BME280;37954;51.980;5.850;2023-04-08T14:02:51;102209.09;;;18.96;34.36
51603;BME280;37954;51.980;5.850;2023-04-08T14:07:03;102210.69;;;18.80;34.47
51603;BME280;37954;51.980;5.850;2023-04-08T14:11:15;102189.41;;;18.54;33.94
51603;BME280;37954;51.980;5.850;2023-04-08T14:15:26;102211.19;;;18.54;34.15
51603;BME280;37954;51.980;5.850;2023-04-08T14:19:38;102208.38;;;18.60;33.73
51603;BME280;37954;51.980;5.850;2023-04-08T14:23:49;102208.16;;;18.38;34.47
51603;BME280;37954;51.980;5.850;2023-04-08T14:28:01;102197.44;;;18.08;35.28
51603;BME280;37954;51.980;5.850;2023-04-08T14:32:13;102201.78;;;17.86;35.68
51603;BME280;37954;51.980;5.850;2023-04-08T14:36:25;102212.97;;;17.55;36.05
51603;BME280;37954;51.980;5.850;2023-04-08T14:40:36;102215.03;;;17.29;35.82
51603;BME280;37954;51.980;5.850;2023-04-08T14:44:48;102210.81;;;17.03;36.81
51603;BME280;37954;51.980;5.850;2023-04-08T14:49:00;102156.34;;;16.68;37.79
51603;BME280;37954;51.980;5.850;2023-04-08T14:53:11;102162.63;;;16.69;38.30
51603;BME280;37954;51.980;5.850;2023-04-08T14:57:23;102165.94;;;16.71;39.15
51603;BME280;37954;51.980;5.850;2023-04-08T15:01:34;102179.88;;;16.75;40.24
51603;BME280;37954;51.980;5.850;2023-04-08T15:05:46;102175.06;;;16.77;41.02
51603;BME280;37954;51.980;5.850;2023-04-08T15:09:59;102175.81;;;16.65;42.23
51603;BME280;37954;51.980;5.850;2023-04-08T15:14:10;102168.50;;;16.66;42.96
51603;BME280;37954;51.980;5.850;2023-04-08T15:18:22;102160.72;;;16.51;44.02
51603;BME280;37954;51.980;5.850;2023-04-08T15:22:33;102183.03;;;16.53;44.65
51603;BME280;37954;51.980;5.850;2023-04-08T15:26:45;102176.28;;;16.44;45.54
51603;BME280;37954;51.980;5.850;2023-04-08T15:30:57;102174.66;;;16.55;45.91
51603;BME280;37954;51.980;5.850;2023-04-08T15:35:08;102176.34;;;16.74;45.71
51603;BME280;37954;51.980;5.850;2023-04-08T15:39:20;102173.22;;;16.89;46.07
51603;BME280;37954;51.980;5.850;2023-04-08T15:43:32;102180.09;;;17.03;46.72
51603;BME280;37954;51.980;5.850;2023-04-08T15:47:43;102167.22;;;16.98;46.68
51603;BME280;37954;51.980;5.850;2023-04-08T15:51:55;102166.94;;;17.18;46.49
51603;BME280;37954;51.980;5.850;2023-04-08T15:56:14;102160.31;;;17.14;46.45
51603;BME280;37954;51.980;5.850;2023-04-08T16:00:26;102160.78;;;17.11;46.44
51603;BME280;37954;51.980;5.850;2023-04-08T16:04:38;102173.06;;;17.14;46.96
51603;BME280;37954;51.980;5.850;2023-04-08T16:08:50;102178.91;;;16.99;47.28
51603;BME280;37954;51.980;5.850;2023-04-08T16:13:03;102159.44;;;16.72;47.53
51603;BME280;37954;51.980;5.850;2023-04-08T16:17:14;102180.97;;;16.85;47.78
51603;BME280;37954;51.980;5.850;2023-04-08T16:21:27;102186.13;;;16.75;48.37
51603;BME280;37954;51.980;5.850;2023-04-08T16:25:39;102182.06;;;16.66;48.69
51603;BME280;37954;51.980;5.850;2023-04-08T16:29:50;102180.09;;;16.73;49.22
51603;BME280;37954;51.980;5.850;2023-04-08T16:34:02;102184.94;;;16.71;49.16
51603;BME280;37954;51.980;5.850;2023-04-08T16:38:14;102186.22;;;16.68;49.29
51603;BME280;37954;51.980;5.850;2023-04-08T16:42:26;102168.47;;;16.48;49.87
51603;BME280;37954;51.980;5.850;2023-04-08T16:46:38;102193.28;;;16.51;50.07
51603;BME280;37954;51.980;5.850;2023-04-08T16:50:49;102188.41;;;16.42;50.26
51603;BME280;37954;51.980;5.850;2023-04-08T16:55:01;102166.69;;;16.23;50.71
51603;BME280;37954;51.980;5.850;2023-04-08T16:59:13;102190.78;;;16.31;50.86
51603;BME280;37954;51.980;5.850;2023-04-08T17:03:24;102191.00;;;16.30;51.10
51603;BME280;37954;51.980;5.850;2023-04-08T17:07:37;102189.34;;;16.11;51.58
51603;BME280;37954;51.980;5.850;2023-04-08T17:11:49;102204.88;;;16.04;51.98
51603;BME280;37954;51.980;5.850;2023-04-08T17:16:01;102183.94;;;15.92;52.14
51603;BME280;37954;51.980;5.850;2023-04-08T17:20:12;102200.50;;;15.78;52.35
51603;BME280;37954;51.980;5.850;2023-04-08T17:24:24;102203.94;;;15.66;53.14
51603;BME280;37954;51.980;5.850;2023-04-08T17:28:35;102200.69;;;15.58;53.49
51603;BME280;37954;51.980;5.850;2023-04-08T17:32:47;102181.47;;;15.35;53.92
51603;BME280;37954;51.980;5.850;2023-04-08T17:36:59;102209.09;;;15.43;54.52
51603;BME280;37954;51.980;5.850;2023-04-08T17:41:10;102212.91;;;15.36;54.28
51603;BME280;37954;51.980;5.850;2023-04-08T17:45:24;102193.47;;;15.14;54.64
51603;BME280;37954;51.980;5.850;2023-04-08T17:49:36;102210.72;;;15.19;55.37
51603;BME280;37954;51.980;5.850;2023-04-08T17:53:48;102214.47;;;15.18;55.47
51603;BME280;37954;51.980;5.850;2023-04-08T17:58:00;102214.72;;;15.10;55.69
51603;BME280;37954;51.980;5.850;2023-04-08T18:02:12;102191.88;;;15.00;56.07
51603;BME280;37954;51.980;5.850;2023-04-08T18:06:24;102216.59;;;15.10;56.83
51603;BME280;37954;51.980;5.850;2023-04-08T18:10:36;102222.44;;;15.07;57.09
51603;BME280;37954;51.980;5.850;2023-04-08T18:14:48;102215.00;;;14.95;57.39
51603;BME280;37954;51.980;5.850;2023-04-08T18:19:00;102206.53;;;14.85;57.30
51603;BME280;37954;51.980;5.850;2023-04-08T18:23:11;102224.03;;;14.83;57.87
51603;BME280;37954;51.980;5.850;2023-04-08T18:27:23;102218.22;;;14.73;57.91
51603;BME280;37954;51.980;5.850;2023-04-08T18:31:35;102211.69;;;14.49;58.47
51603;BME280;37954;51.980;5.850;2023-04-08T18:35:46;102202.34;;;14.25;59.28
51603;BME280;37954;51.980;5.850;2023-04-08T18:39:58;102222.91;;;14.26;59.18
51603;BME280;37954;51.980;5.850;2023-04-08T18:44:12;102230.63;;;14.29;59.16
51603;BME280;37954;51.980;5.850;2023-04-08T18:48:23;102220.03;;;14.08;59.55
51603;BME280;37954;51.980;5.850;2023-04-08T18:52:35;102241.25;;;13.98;60.43
51603;BME280;37954;51.980;5.850;2023-04-08T18:56:47;102249.38;;;13.78;60.44
51603;BME280;37954;51.980;5.850;2023-04-08T19:00:59;102254.53;;;13.59;61.03
51603;BME280;37954;51.980;5.850;2023-04-08T19:05:11;102249.31;;;13.38;62.51
51603;BME280;37954;51.980;5.850;2023-04-08T19:09:23;102235.56;;;13.20;62.26
51603;BME280;37954;51.980;5.850;2023-04-08T19:13:34;102255.13;;;13.29;62.64
51603;BME280;37954;51.980;5.850;2023-04-08T19:17:46;102244.88;;;13.11;62.94
51603;BME280;37954;51.980;5.850;2023-04-08T19:21:58;102232.16;;;12.98;63.33
51603;BME280;37954;51.980;5.850;2023-04-08T19:26:13;102266.84;;;13.08;64.27
51603;BME280;37954;51.980;5.850;2023-04-08T19:30:24;102270.78;;;13.05;64.28
51603;BME280;37954;51.980;5.850;2023-04-08T19:34:37;102247.44;;;12.78;64.53
51603;BME280;37954;51.980;5.850;2023-04-08T19:38:49;102270.25;;;12.82;65.01
51603;BME280;37954;51.980;5.850;2023-04-08T19:43:00;102276.88;;;12.73;65.66
51603;BME280;37954;51.980;5.850;2023-04-08T19:47:12;102278.47;;;12.67;65.39
51603;BME280;37954;51.980;5.850;2023-04-08T19:51:23;102244.78;;;12.43;65.69
51603;BME280;37954;51.980;5.850;2023-04-08T19:55:36;102279.84;;;12.50;66.02
51603;BME280;37954;51.980;5.850;2023-04-08T19:59:48;102286.88;;;12.44;66.34
51603;BME280;37954;51.980;5.850;2023-04-08T20:04:00;102291.19;;;12.39;67.15
51603;BME280;37954;51.980;5.850;2023-04-08T20:08:12;102290.28;;;12.32;66.93
51603;BME280;37954;51.980;5.850;2023-04-08T20:12:23;102305.41;;;12.26;67.20
51603;BME280;37954;51.980;5.850;2023-04-08T20:16:35;102295.31;;;12.13;67.28
51603;BME280;37954;51.980;5.850;2023-04-08T20:20:46;102299.84;;;12.06;67.48
51603;BME280;37954;51.980;5.850;2023-04-08T20:24:59;102311.25;;;12.08;67.67
51603;BME280;37954;51.980;5.850;2023-04-08T20:29:10;102307.66;;;12.01;67.77
51603;BME280;37954;51.980;5.850;2023-04-08T20:33:22;102306.19;;;11.99;67.90
51603;BME280;37954;51.980;5.850;2023-04-08T20:37:34;102317.81;;;11.99;67.85
51603;BME280;37954;51.980;5.850;2023-04-08T20:41:45;102312.38;;;11.93;67.86
51603;BME280;37954;51.980;5.850;2023-04-08T20:45:57;102320.38;;;11.86;68.04
51603;BME280;37954;51.980;5.850;2023-04-08T20:50:09;102317.88;;;11.84;68.31
51603;BME280;37954;51.980;5.850;2023-04-08T20:54:20;102321.41;;;11.85;67.95
51603;BME280;37954;51.980;5.850;2023-04-08T20:58:32;102303.88;;;11.74;68.40
51603;BME280;37954;51.980;5.850;2023-04-08T21:02:44;102307.69;;;11.80;68.26
51603;BME280;37954;51.980;5.850;2023-04-08T21:06:56;102314.09;;;11.79;68.41
51603;BME280;37954;51.980;5.850;2023-04-08T21:11:07;102309.13;;;11.76;68.68
51603;BME280;37954;51.980;5.850;2023-04-08T21:15:19;102309.13;;;11.76;68.74
51603;BME280;37954;51.980;5.850;2023-04-08T21:19:30;102302.28;;;11.80;68.46
51603;BME280;37954;51.980;5.850;2023-04-08T21:23:42;102313.97;;;11.87;68.48
51603;BME280;37954;51.980;5.850;2023-04-08T21:27:53;102310.69;;;11.92;68.28
51603;BME280;37954;51.980;5.850;2023-04-08T21:32:05;102298.28;;;11.91;68.29
51603;BME280;37954;51.980;5.850;2023-04-08T21:36:17;102304.50;;;11.91;68.37
51603;BME280;37954;51.980;5.850;2023-04-08T21:40:30;102307.81;;;11.93;68.57
51603;BME280;37954;51.980;5.850;2023-04-08T21:44:42;102303.28;;;11.94;68.83
51603;BME280;37954;51.980;5.850;2023-04-08T21:48:53;102304.09;;;11.94;69.01
51603;BME280;37954;51.980;5.850;2023-04-08T21:53:05;102303.50;;;11.99;68.22
51603;BME280;37954;51.980;5.850;2023-04-08T21:57:17;102308.69;;;12.00;68.29
51603;BME280;37954;51.980;5.850;2023-04-08T22:01:29;102297.06;;;11.93;68.42
51603;BME280;37954;51.980;5.850;2023-04-08T22:05:40;102305.97;;;11.94;68.31
51603;BME280;37954;51.980;5.850;2023-04-08T22:09:52;102305.13;;;11.93;68.49
51603;BME280;37954;51.980;5.850;2023-04-08T22:14:04;102301.59;;;11.93;68.47